createdAt,value
2019-02-09T00:02:01.009Z,10.10
2019-02-09T00:04:30.470Z,10.10
2019-02-09T00:06:57.091Z,10.10
2019-02-09T00:09:23.733Z,10.10
2019-02-09T00:11:50.342Z,10.00
2019-02-09T00:14:16.938Z,10.10
2019-02-09T00:16:43.744Z,10.00
2019-02-09T00:19:10.549Z,10.00
2019-02-09T00:21:37.288Z,10.00
2019-02-09T00:24:04.710Z,10.00
2019-02-09T00:26:31.520Z,10.00
2019-02-09T00:29:00.859Z,10.00
2019-02-09T00:31:27.680Z,10.00
2019-02-09T00:33:54.482Z,10.00
2019-02-09T00:36:21.278Z,10.00
2019-02-09T00:38:47.892Z,10.00
2019-02-09T00:41:14.906Z,10.00
2019-02-09T00:43:41.553Z,10.00
2019-02-09T00:46:08.153Z,10.00
2019-02-09T00:48:34.724Z,10.00
2019-02-09T00:51:01.316Z,10.00
2019-02-09T00:53:28.034Z,10.00
2019-02-09T00:55:54.664Z,10.00
2019-02-09T00:58:21.443Z,9.90
2019-02-09T01:00:48.238Z,9.90
2019-02-09T01:03:14.824Z,10.00
2019-02-09T01:05:41.526Z,9.90
2019-02-09T01:08:08.310Z,10.00
2019-02-09T01:10:35.110Z,9.90
2019-02-09T01:13:01.829Z,9.90
2019-02-09T01:15:28.451Z,9.90
2019-02-09T01:17:55.444Z,9.90
2019-02-09T01:20:22.078Z,9.90
2019-02-09T01:22:48.774Z,9.90
2019-02-09T01:25:15.435Z,9.90
2019-02-09T01:27:42.107Z,9.90
2019-02-09T01:30:09.174Z,9.90
2019-02-09T01:32:35.903Z,9.90
2019-02-09T01:35:02.819Z,9.90
2019-02-09T01:37:29.585Z,9.90
2019-02-09T01:39:56.381Z,9.90
2019-02-09T01:42:23.131Z,9.90
2019-02-09T01:44:49.879Z,9.80
2019-02-09T01:47:16.643Z,9.80
2019-02-09T01:49:43.731Z,9.80
2019-02-09T01:52:10.359Z,9.80
2019-02-09T01:57:17.995Z,9.80
2019-02-09T01:59:47.893Z,9.80
2019-02-09T02:02:14.513Z,9.80
2019-02-09T02:04:41.107Z,9.80
2019-02-09T02:07:07.835Z,9.80
2019-02-09T02:09:34.447Z,9.80
2019-02-09T02:12:01.076Z,9.80
2019-02-09T02:14:27.675Z,9.80
2019-02-09T02:16:54.376Z,9.80
2019-02-09T02:19:21.054Z,9.80
2019-02-09T02:21:47.996Z,9.80
2019-02-09T02:24:15.048Z,9.80
2019-02-09T02:26:41.680Z,9.80
2019-02-09T02:29:08.385Z,9.80
2019-02-09T02:31:34.979Z,9.80
2019-02-09T02:34:01.606Z,9.70
2019-02-09T02:36:28.348Z,9.80
2019-02-09T02:38:55.886Z,9.70
2019-02-09T02:41:23.020Z,9.70
2019-02-09T02:43:49.643Z,9.70
2019-02-09T02:46:16.324Z,9.70
2019-02-09T02:48:44.844Z,9.70
2019-02-09T02:51:11.665Z,9.70
2019-02-09T02:53:38.412Z,9.70
2019-02-09T02:56:04.994Z,9.70
2019-02-09T02:58:31.598Z,9.70
2019-02-09T03:00:58.898Z,9.70
2019-02-09T03:03:25.557Z,9.70
2019-02-09T03:05:52.466Z,9.70
2019-02-09T03:08:19.104Z,9.70
2019-02-09T03:10:45.669Z,9.70
2019-02-09T03:13:12.432Z,9.70
2019-02-09T03:15:39.158Z,9.70
2019-02-09T03:18:06.065Z,9.70
2019-02-09T03:20:34.485Z,9.70
2019-02-09T03:23:01.614Z,9.60
2019-02-09T03:25:28.249Z,9.60
2019-02-09T03:27:55.010Z,9.60
2019-02-09T03:30:22.287Z,9.60
2019-02-09T03:32:49.517Z,9.60
2019-02-09T03:35:16.123Z,9.60
2019-02-09T03:37:42.880Z,9.60
2019-02-09T03:40:09.528Z,9.60
2019-02-09T03:42:36.253Z,9.60
2019-02-09T03:45:02.895Z,9.60
2019-02-09T03:47:29.955Z,9.60
2019-02-09T03:49:56.561Z,9.60
2019-02-09T03:52:23.615Z,9.60
2019-02-09T03:54:50.327Z,9.50
2019-02-09T03:57:17.102Z,9.50
2019-02-09T03:59:43.735Z,9.50
2019-02-09T04:02:15.145Z,9.50
2019-02-09T04:04:41.835Z,9.50
2019-02-09T04:07:10.694Z,9.50
2019-02-09T04:09:37.372Z,9.50
2019-02-09T04:12:03.997Z,9.50
2019-02-09T04:14:30.901Z,9.40
2019-02-09T04:16:57.624Z,9.50
2019-02-09T04:19:24.357Z,9.50
2019-02-09T04:21:51.091Z,9.50
2019-02-09T04:24:18.406Z,9.40
2019-02-09T04:26:46.670Z,9.50
2019-02-09T04:29:13.379Z,9.50
2019-02-09T04:31:40.042Z,9.40
2019-02-09T04:34:06.688Z,9.40
2019-02-09T04:36:33.321Z,9.40
2019-02-09T04:39:00.059Z,9.40
2019-02-09T04:41:26.803Z,9.40
2019-02-09T04:43:53.596Z,9.40
2019-02-09T04:46:20.847Z,9.40
2019-02-09T04:48:47.460Z,9.40
2019-02-09T04:51:14.429Z,9.40
2019-02-09T04:53:41.695Z,9.30
2019-02-09T04:56:08.781Z,9.30
2019-02-09T04:58:35.460Z,9.30
2019-02-09T05:01:02.206Z,9.30
2019-02-09T05:03:28.932Z,9.30
2019-02-09T05:05:55.671Z,9.30
2019-02-09T05:08:22.423Z,9.30
2019-02-09T05:10:49.072Z,9.30
2019-02-09T05:13:15.756Z,9.50
2019-02-09T05:15:42.372Z,9.30
2019-02-09T05:18:09.002Z,9.30
2019-02-09T05:20:35.636Z,9.30
2019-02-09T05:23:02.628Z,9.30
2019-02-09T05:25:29.402Z,9.20
2019-02-09T05:27:56.460Z,9.20
2019-02-09T05:30:25.146Z,9.30
2019-02-09T05:32:51.878Z,9.20
2019-02-09T05:35:19.205Z,9.20
2019-02-09T05:37:46.216Z,9.20
2019-02-09T05:40:13.152Z,9.20
2019-02-09T05:42:40.120Z,9.20
2019-02-09T05:45:06.873Z,9.20
2019-02-09T05:47:33.499Z,9.20
2019-02-09T05:50:00.227Z,9.20
2019-02-09T05:52:26.975Z,9.20
2019-02-09T05:54:53.620Z,9.10
2019-02-09T05:57:21.936Z,9.10
2019-02-09T05:59:48.457Z,9.10
2019-02-09T06:02:15.067Z,9.10
2019-02-09T06:04:41.829Z,9.10
2019-02-09T06:07:08.455Z,9.10
2019-02-09T06:09:35.472Z,9.10
2019-02-09T06:12:02.104Z,9.10
2019-02-09T06:14:28.843Z,9.10
2019-02-09T06:16:55.545Z,9.10
2019-02-09T06:19:22.532Z,9.10
2019-02-09T06:21:49.603Z,9.00
2019-02-09T06:24:16.375Z,9.00
2019-02-09T06:26:42.976Z,9.00
2019-02-09T06:29:09.600Z,9.00
2019-02-09T06:31:40.893Z,9.00
2019-02-09T06:34:04.927Z,9.00
2019-02-09T06:36:31.741Z,9.00
2019-02-09T06:38:58.880Z,9.00
2019-02-09T06:41:25.911Z,9.00
2019-02-09T06:43:52.558Z,9.00
2019-02-09T06:46:19.217Z,9.00
2019-02-09T06:48:46.001Z,9.00
2019-02-09T06:51:12.813Z,9.00
2019-02-09T06:53:39.553Z,9.00
2019-02-09T06:56:06.157Z,8.90
2019-02-09T06:58:32.916Z,8.70
2019-02-09T07:00:59.646Z,8.90
2019-02-09T07:03:26.396Z,8.90
2019-02-09T07:05:55.026Z,8.90
2019-02-09T07:08:22.186Z,8.90
2019-02-09T07:10:48.835Z,8.90
2019-02-09T07:13:15.916Z,8.90
2019-02-09T07:15:42.688Z,8.90
2019-02-09T07:18:09.308Z,8.90
2019-02-09T07:20:36.196Z,8.90
2019-02-09T07:23:02.821Z,8.90
2019-02-09T07:25:29.611Z,8.90
2019-02-09T07:27:56.374Z,8.90
2019-02-09T07:30:23.014Z,8.90
2019-02-09T07:32:49.757Z,8.90
2019-02-09T07:35:16.954Z,9.00
2019-02-09T07:37:43.782Z,8.90
2019-02-09T07:40:10.626Z,8.50
2019-02-09T07:42:37.380Z,8.90
2019-02-09T07:45:04.539Z,8.90
2019-02-09T07:47:31.606Z,8.90
2019-02-09T07:49:58.465Z,8.90
2019-02-09T07:52:25.289Z,8.90
2019-02-09T07:54:53.241Z,8.80
2019-02-09T07:57:19.995Z,8.80
2019-02-09T07:59:46.720Z,8.80
2019-02-09T08:02:14.502Z,8.80
2019-02-09T08:04:41.376Z,8.90
2019-02-09T08:07:08.164Z,8.80
2019-02-09T08:09:36.168Z,8.80
2019-02-09T08:12:02.770Z,8.80
2019-02-09T08:14:29.943Z,8.80
2019-02-09T08:16:57.806Z,8.90
2019-02-09T08:19:24.746Z,8.80
2019-02-09T08:21:51.671Z,8.80
2019-02-09T08:24:18.394Z,8.80
2019-02-09T08:26:45.147Z,8.80
2019-02-09T08:29:12.545Z,8.80
2019-02-09T08:34:18.584Z,8.70
2019-02-09T08:36:45.210Z,8.80
2019-02-09T08:39:11.883Z,8.80
2019-02-09T08:41:39.227Z,8.80
2019-02-09T08:44:06.283Z,8.80
2019-02-09T08:46:33.207Z,8.80
2019-02-09T08:48:59.851Z,8.80
2019-02-09T08:51:26.725Z,8.80
2019-02-09T08:53:53.674Z,8.80
2019-02-09T08:56:20.425Z,8.80
2019-02-09T08:58:47.465Z,8.80
2019-02-09T09:01:14.308Z,8.80
2019-02-09T09:03:42.757Z,8.80
2019-02-09T09:06:10.460Z,8.80
2019-02-09T09:08:37.199Z,8.80
2019-02-09T09:11:05.650Z,8.90
2019-02-09T09:13:32.289Z,8.80
2019-02-09T09:15:59.253Z,8.90
2019-02-09T09:18:26.026Z,8.80
2019-02-09T09:20:53.076Z,8.80
2019-02-09T09:23:20.164Z,8.80
2019-02-09T09:25:46.975Z,8.90
2019-02-09T09:28:13.776Z,8.80
2019-02-09T09:30:40.421Z,8.90
2019-02-09T09:33:07.514Z,8.90
2019-02-09T09:35:34.404Z,8.90
2019-02-09T09:38:01.014Z,8.90
2019-02-09T09:40:27.688Z,8.90
2019-02-09T09:42:54.339Z,8.90
2019-02-09T09:45:21.163Z,8.90
2019-02-09T09:47:48.222Z,8.90
2019-02-09T09:50:15.154Z,8.90
2019-02-09T09:52:41.790Z,8.90
2019-02-09T09:55:08.549Z,8.90
2019-02-09T09:57:35.375Z,8.90
2019-02-09T10:00:02.136Z,8.90
2019-02-09T10:02:36.274Z,8.90
2019-02-09T10:04:57.410Z,8.90
2019-02-09T10:07:25.306Z,8.90
2019-02-09T10:09:53.872Z,8.90
2019-02-09T10:12:20.524Z,9.00
2019-02-09T10:14:49.040Z,9.00
2019-02-09T10:17:17.852Z,9.00
2019-02-09T10:19:47.737Z,9.00
2019-02-09T10:22:14.292Z,9.00
2019-02-09T10:24:44.626Z,9.00
2019-02-09T10:27:14.159Z,9.00
2019-02-09T10:29:41.213Z,9.00
2019-02-09T10:32:08.036Z,9.10
2019-02-09T10:34:34.846Z,9.10
2019-02-09T10:37:03.366Z,9.10
2019-02-09T10:39:30.268Z,9.10
2019-02-09T10:41:56.912Z,9.10
2019-02-09T10:44:25.024Z,8.80
2019-02-09T10:46:51.906Z,9.10
2019-02-09T10:49:18.677Z,9.10
2019-02-09T10:51:45.414Z,9.10
2019-02-09T10:54:12.052Z,9.10
2019-02-09T10:56:40.898Z,9.10
2019-02-09T10:59:07.551Z,9.20
2019-02-09T11:01:34.304Z,9.10
2019-02-09T11:04:02.437Z,9.20
2019-02-09T11:06:29.102Z,9.20
2019-02-09T11:08:55.799Z,9.20
2019-02-09T11:11:22.567Z,9.20
2019-02-09T11:13:49.363Z,9.20
2019-02-09T11:16:16.131Z,9.20
2019-02-09T11:18:42.871Z,9.20
2019-02-09T11:21:10.200Z,9.20
2019-02-09T11:23:37.249Z,9.20
2019-02-09T11:26:06.460Z,9.20
2019-02-09T11:28:33.189Z,9.20
2019-02-09T11:30:59.831Z,9.20
2019-02-09T11:33:26.743Z,9.30
2019-02-09T11:35:53.821Z,9.30
2019-02-09T11:38:23.365Z,9.30
2019-02-09T11:40:50.836Z,9.30
2019-02-09T11:43:20.080Z,9.30
2019-02-09T11:45:48.468Z,9.30
2019-02-09T11:48:15.402Z,9.30
2019-02-09T11:50:43.171Z,9.30
2019-02-09T11:53:11.128Z,9.30
2019-02-09T11:55:37.863Z,9.40
2019-02-09T11:58:04.900Z,9.40
2019-02-09T12:00:31.940Z,9.40
2019-02-09T12:03:05.373Z,9.40
2019-02-09T12:05:29.336Z,9.40
2019-02-09T12:07:57.122Z,9.40
2019-02-09T12:10:24.936Z,9.50
2019-02-09T12:12:53.263Z,9.50
2019-02-09T12:15:23.882Z,9.50
2019-02-09T12:17:54.569Z,9.50
2019-02-09T12:20:21.156Z,9.50
2019-02-09T12:22:51.084Z,9.50
2019-02-09T12:25:18.127Z,9.60
2019-02-09T12:27:47.586Z,9.60
2019-02-09T12:30:16.248Z,9.60
2019-02-09T12:32:42.880Z,9.60
2019-02-09T12:35:10.848Z,9.70
2019-02-09T12:37:37.612Z,9.70
2019-02-09T12:40:04.624Z,9.70
2019-02-09T12:42:34.357Z,9.70
2019-02-09T12:45:00.889Z,9.60
2019-02-09T12:47:30.429Z,9.70
2019-02-09T12:49:59.236Z,9.80
2019-02-09T12:52:26.575Z,9.80
2019-02-09T12:54:53.495Z,9.80
2019-02-09T12:57:20.516Z,9.80
2019-02-09T12:59:48.333Z,9.70
2019-02-09T13:02:15.087Z,9.90
2019-02-09T13:04:42.227Z,9.90
2019-02-09T13:07:12.140Z,9.90
2019-02-09T13:09:40.001Z,9.90
2019-02-09T13:12:08.406Z,9.90
2019-02-09T13:14:35.403Z,9.90
2019-02-09T13:17:02.341Z,10.00
2019-02-09T13:19:30.851Z,10.00
2019-02-09T13:22:00.974Z,10.00
2019-02-09T13:24:29.526Z,10.00
2019-02-09T13:26:56.153Z,10.00
2019-02-09T13:29:24.627Z,10.00
2019-02-09T13:31:52.479Z,10.10
2019-02-09T13:34:24.267Z,10.10
2019-02-09T13:36:51.303Z,10.10
2019-02-09T13:39:18.567Z,10.10
2019-02-09T13:41:45.687Z,10.10
2019-02-09T13:44:12.301Z,10.10
2019-02-09T13:46:39.224Z,10.10
2019-02-09T13:49:07.397Z,10.20
2019-02-09T13:51:34.449Z,10.20
2019-02-09T13:54:03.237Z,10.20
2019-02-09T13:56:29.934Z,10.20
2019-02-09T13:58:56.689Z,10.20
2019-02-09T14:01:23.517Z,10.20
2019-02-09T14:03:50.737Z,10.20
2019-02-09T14:06:19.953Z,10.20
2019-02-09T14:08:47.849Z,10.30
2019-02-09T14:11:16.695Z,10.30
2019-02-09T14:13:43.553Z,10.30
2019-02-09T14:16:10.913Z,10.30
2019-02-09T14:18:39.077Z,10.30
2019-02-09T14:21:06.305Z,10.30
2019-02-09T14:23:33.277Z,10.30
2019-02-09T14:26:01.730Z,10.40
2019-02-09T14:28:29.532Z,10.40
2019-02-09T14:30:56.592Z,10.40
2019-02-09T14:33:27.474Z,10.40
2019-02-09T14:35:57.788Z,10.40
2019-02-09T14:38:24.629Z,10.40
2019-02-09T14:40:51.418Z,10.40
2019-02-09T14:43:18.237Z,10.40
2019-02-09T14:45:45.082Z,10.40
2019-02-09T14:48:11.828Z,10.50
2019-02-09T14:50:39.693Z,10.50
2019-02-09T14:53:06.353Z,10.50
2019-02-09T14:55:33.504Z,10.50
2019-02-09T14:58:00.155Z,10.50
2019-02-09T15:00:26.938Z,10.50
2019-02-09T15:02:54.636Z,10.50
2019-02-09T15:05:21.222Z,10.50
2019-02-09T15:07:47.937Z,10.50
2019-02-09T15:10:15.969Z,10.50
2019-02-09T15:12:43.809Z,10.50
2019-02-09T15:15:12.181Z,10.60
2019-02-09T15:17:39.036Z,10.60
2019-02-09T15:20:06.038Z,10.60
2019-02-09T15:22:33.075Z,10.60
2019-02-09T15:25:06.966Z,10.60
2019-02-09T15:27:33.743Z,10.60
2019-02-09T15:30:00.346Z,10.60
2019-02-09T15:32:28.058Z,10.60
2019-02-09T15:34:54.851Z,10.60
2019-02-09T15:37:23.156Z,10.60
2019-02-09T15:39:49.971Z,10.60
2019-02-09T15:42:16.763Z,10.60
2019-02-09T15:44:43.490Z,10.60
2019-02-09T15:47:10.433Z,10.70
2019-02-09T15:49:37.385Z,10.70
2019-02-09T15:52:05.259Z,10.70
2019-02-09T15:54:33.769Z,10.70
2019-02-09T15:57:02.234Z,10.70
2019-02-09T15:59:29.676Z,10.70
2019-02-09T16:01:57.860Z,10.70
2019-02-09T16:04:24.589Z,10.70
2019-02-09T16:06:52.764Z,10.70
2019-02-09T16:09:21.720Z,10.70
2019-02-09T16:11:48.770Z,10.70
2019-02-09T16:14:15.433Z,10.70
2019-02-09T16:16:42.271Z,10.70
2019-02-09T16:19:10.108Z,10.70
2019-02-09T16:21:37.393Z,10.70
2019-02-09T16:24:05.923Z,10.70
2019-02-09T16:26:32.719Z,10.70
2019-02-09T16:28:59.484Z,10.70
2019-02-09T16:31:26.124Z,10.70
2019-02-09T16:33:54.639Z,10.70
2019-02-09T16:36:21.630Z,10.70
2019-02-09T16:38:48.365Z,10.70
2019-02-09T16:41:15.240Z,10.70
2019-02-09T16:43:42.096Z,10.70
2019-02-09T16:46:10.686Z,10.70
2019-02-09T16:48:37.920Z,10.70
2019-02-09T16:51:04.622Z,10.60
2019-02-09T16:53:32.400Z,10.60
2019-02-09T16:55:59.139Z,10.60
2019-02-09T16:58:25.772Z,10.60
2019-02-09T17:00:52.658Z,10.60
2019-02-09T17:03:19.533Z,10.60
2019-02-09T17:05:46.554Z,10.60
2019-02-09T17:08:13.321Z,10.60
2019-02-09T17:10:40.132Z,10.50
2019-02-09T17:13:07.111Z,10.60
2019-02-09T17:15:33.780Z,10.60
2019-02-09T17:18:01.610Z,10.60
2019-02-09T17:20:28.404Z,10.50
2019-02-09T17:22:56.103Z,10.60
2019-02-09T17:25:22.837Z,10.60
2019-02-09T17:27:51.715Z,10.60
2019-02-09T17:30:18.957Z,10.60
2019-02-09T17:32:46.032Z,10.50
2019-02-09T17:35:12.670Z,10.50
2019-02-09T17:37:39.500Z,10.50
2019-02-09T17:40:06.310Z,10.50
2019-02-09T17:42:33.609Z,10.40
2019-02-09T17:45:00.389Z,10.50
2019-02-09T17:47:27.153Z,10.50
2019-02-09T17:49:53.927Z,10.50
2019-02-09T17:52:20.848Z,10.50
2019-02-09T17:54:52.210Z,10.50
2019-02-09T17:57:19.368Z,10.50
2019-02-09T17:59:49.606Z,10.40
2019-02-09T18:02:16.251Z,10.40
2019-02-09T18:04:48.413Z,10.40
2019-02-09T18:07:14.463Z,10.40
2019-02-09T18:09:40.462Z,10.40
2019-02-09T18:12:07.180Z,10.40
2019-02-09T18:14:33.939Z,10.40
2019-02-09T18:17:01.757Z,10.40
2019-02-09T18:19:28.839Z,10.40
2019-02-09T18:21:55.593Z,10.40
2019-02-09T18:24:22.291Z,10.40
2019-02-09T18:26:48.915Z,10.40
2019-02-09T18:29:15.955Z,10.30
2019-02-09T18:31:42.762Z,10.30
2019-02-09T18:34:11.989Z,10.30
2019-02-09T18:36:38.840Z,10.30
2019-02-09T18:39:07.247Z,10.30
2019-02-09T18:41:34.014Z,10.30
2019-02-09T18:44:00.867Z,10.30
2019-02-09T18:46:27.746Z,10.30
2019-02-09T18:48:56.388Z,10.30
2019-02-09T18:51:25.021Z,10.30
2019-02-09T18:53:52.071Z,10.30
2019-02-09T18:56:18.879Z,10.30
2019-02-09T18:58:45.531Z,10.20
2019-02-09T19:01:12.274Z,10.20
2019-02-09T19:03:39.348Z,10.20
2019-02-09T19:06:05.958Z,10.10
2019-02-09T19:08:32.655Z,10.20
2019-02-09T19:10:59.440Z,10.20
2019-02-09T19:13:26.242Z,10.20
2019-02-09T19:15:54.020Z,10.20
2019-02-09T19:18:20.798Z,10.20
2019-02-09T19:20:47.728Z,10.20
2019-02-09T19:23:14.469Z,10.10
2019-02-09T19:25:42.950Z,10.10
2019-02-09T19:28:09.922Z,10.10
2019-02-09T19:30:37.662Z,10.10
2019-02-09T19:33:04.719Z,10.10
2019-02-09T19:35:31.418Z,10.10
2019-02-09T19:37:58.162Z,10.10
2019-02-09T19:40:25.172Z,10.10
2019-02-09T19:42:51.866Z,10.10
2019-02-09T19:45:20.597Z,10.10
2019-02-09T19:47:49.394Z,10.10
2019-02-09T19:50:16.075Z,10.10
2019-02-09T19:52:42.744Z,10.10
2019-02-09T19:55:09.876Z,10.00
2019-02-09T19:57:36.523Z,10.00
2019-02-09T20:00:04.894Z,10.00
2019-02-09T20:02:31.483Z,10.00
2019-02-09T20:04:58.523Z,10.00
2019-02-09T20:07:25.219Z,10.00
2019-02-09T20:09:51.859Z,10.00
2019-02-09T20:12:18.879Z,10.00
2019-02-09T20:14:45.829Z,10.00
2019-02-09T20:17:12.620Z,10.00
2019-02-09T20:19:39.211Z,10.00
2019-02-09T20:22:06.022Z,10.00
2019-02-09T20:24:32.909Z,10.00
2019-02-09T20:26:59.575Z,10.00
2019-02-09T20:29:27.924Z,9.60
2019-02-09T20:31:54.625Z,9.90
2019-02-09T20:34:21.703Z,9.90
2019-02-09T20:36:48.485Z,10.00
2019-02-09T20:39:15.549Z,9.90
2019-02-09T20:41:42.266Z,9.90
2019-02-09T20:44:09.320Z,9.90
2019-02-09T20:46:36.201Z,9.90
2019-02-09T20:49:03.395Z,9.90
2019-02-09T20:51:30.174Z,9.90
2019-02-09T20:53:57.113Z,9.90
2019-02-09T20:56:23.732Z,9.90
2019-02-09T20:58:50.917Z,9.90
2019-02-09T21:01:18.075Z,9.80
2019-02-09T21:03:44.895Z,9.90
2019-02-09T21:06:12.952Z,9.80
2019-02-09T21:08:39.642Z,9.80
2019-02-09T21:11:06.286Z,9.80
2019-02-09T21:13:33.114Z,9.80
2019-02-09T21:15:59.871Z,9.80
2019-02-09T21:18:26.631Z,9.80
2019-02-09T21:20:53.687Z,9.80
2019-02-09T21:23:20.825Z,9.80
2019-02-09T21:25:47.560Z,9.80
2019-02-09T21:28:14.414Z,9.80
2019-02-09T21:30:41.411Z,9.80
2019-02-09T21:33:09.421Z,9.80
2019-02-09T21:35:43.703Z,9.40
2019-02-09T21:38:07.344Z,9.80
2019-02-09T21:40:34.236Z,9.80
2019-02-09T21:43:01.044Z,9.80
2019-02-09T21:45:27.775Z,9.80
2019-02-09T21:47:54.557Z,9.80
2019-02-09T21:50:21.770Z,9.80
2019-02-09T21:52:50.114Z,9.70
2019-02-09T21:55:18.778Z,9.80
2019-02-09T21:57:45.500Z,9.40
2019-02-09T22:00:12.148Z,9.70
2019-02-09T22:02:42.737Z,9.70
2019-02-09T22:05:07.381Z,9.70
2019-02-09T22:07:34.198Z,9.70
2019-02-09T22:10:04.040Z,9.70
2019-02-09T22:12:30.763Z,9.70
2019-02-09T22:14:57.581Z,9.70
2019-02-09T22:17:24.555Z,9.70
2019-02-09T22:19:52.446Z,9.70
2019-02-09T22:22:19.408Z,9.70
2019-02-09T22:24:46.206Z,9.70
2019-02-09T22:27:12.981Z,9.70
2019-02-09T22:29:39.747Z,9.70
2019-02-09T22:32:06.485Z,9.70
2019-02-09T22:34:33.195Z,9.70
2019-02-09T22:36:59.984Z,9.60
2019-02-09T22:39:27.152Z,9.70
2019-02-09T22:41:54.011Z,9.70
2019-02-09T22:44:20.847Z,9.70
2019-02-09T22:46:47.925Z,9.70
2019-02-09T22:49:16.065Z,9.70
2019-02-09T22:51:42.801Z,9.70
2019-02-09T22:54:09.919Z,9.70
2019-02-09T22:56:36.740Z,9.70
2019-02-09T22:59:04.769Z,9.70
2019-02-09T23:01:31.723Z,9.70
2019-02-09T23:03:58.589Z,9.70
2019-02-09T23:06:25.770Z,9.70
2019-02-09T23:08:53.155Z,9.60
2019-02-09T23:11:21.737Z,9.60
2019-02-09T23:13:48.643Z,9.70
2019-02-09T23:16:15.820Z,9.60
2019-02-09T23:18:42.558Z,9.60
2019-02-09T23:21:10.543Z,9.60
2019-02-09T23:23:37.743Z,9.70
2019-02-09T23:26:04.319Z,9.60
2019-02-09T23:28:31.296Z,9.70
2019-02-09T23:30:58.025Z,9.60
2019-02-09T23:33:26.970Z,9.70
2019-02-09T23:35:53.749Z,9.60
2019-02-09T23:38:20.431Z,9.70
2019-02-09T23:40:47.051Z,9.60
2019-02-09T23:43:14.028Z,9.60
2019-02-09T23:45:40.845Z,9.60
2019-02-09T23:48:07.595Z,9.60
2019-02-09T23:50:34.680Z,9.30
2019-02-09T23:53:01.628Z,9.70
2019-02-09T23:55:29.480Z,9.30
2019-02-09T23:57:56.317Z,9.60
